createdAt,value
2022-08-31T00:02:41.831Z,3.15
2022-08-31T00:05:14.109Z,3.90
2022-08-31T00:07:46.268Z,3.62
2022-08-31T00:10:31.809Z,3.53
2022-08-31T00:12:57.486Z,3.60
2022-08-31T00:15:30.361Z,3.95
2022-08-31T00:18:02.721Z,3.92
2022-08-31T00:20:35.073Z,3.62
2022-08-31T00:23:09.696Z,3.62
2022-08-31T00:25:44.425Z,3.90
2022-08-31T00:28:18.130Z,3.70
2022-08-31T00:33:22.119Z,3.98
2022-08-31T00:35:54.787Z,3.40
2022-08-31T00:38:26.830Z,3.45
2022-08-31T00:41:00.115Z,3.60
2022-08-31T00:43:44.020Z,3.90
2022-08-31T00:46:18.879Z,3.25
2022-08-31T00:48:53.943Z,3.75
2022-08-31T00:51:28.308Z,3.33
2022-08-31T00:54:01.415Z,3.55
2022-08-31T00:56:34.956Z,3.65
2022-08-31T00:59:07.329Z,3.90
2022-08-31T01:01:39.760Z,3.30
2022-08-31T01:04:11.780Z,3.85
2022-08-31T01:06:44.617Z,3.65
2022-08-31T01:09:17.744Z,3.83
2022-08-31T01:14:23.024Z,3.58
2022-08-31T01:16:56.738Z,3.83
2022-08-31T01:19:37.865Z,3.97
2022-08-31T01:22:33.641Z,3.92
2022-08-31T01:25:06.738Z,4.08
2022-08-31T01:27:40.340Z,3.83
2022-08-31T01:30:14.646Z,3.50
2022-08-31T01:35:17.760Z,4.03
2022-08-31T01:37:50.168Z,3.62
2022-08-31T01:40:24.907Z,4.12
2022-08-31T01:42:57.256Z,4.10
2022-08-31T01:45:29.587Z,4.58
2022-08-31T01:48:02.707Z,4.75
2022-08-31T01:50:35.772Z,4.58
2022-08-31T01:53:07.768Z,3.90
2022-08-31T01:55:39.925Z,3.83
2022-08-31T01:58:12.183Z,4.20
2022-08-31T02:00:46.149Z,4.60
2022-08-31T02:03:18.676Z,4.00
2022-08-31T02:05:50.942Z,4.12
2022-08-31T02:08:23.351Z,4.03
2022-08-31T02:10:55.331Z,4.10
2022-08-31T02:13:27.439Z,4.40
2022-08-31T02:15:59.775Z,4.05
2022-08-31T02:18:32.019Z,4.75
2022-08-31T02:21:04.972Z,4.55
2022-08-31T02:23:36.953Z,3.90
2022-08-31T02:26:09.531Z,4.28
2022-08-31T02:28:42.249Z,4.05
2022-08-31T02:31:15.026Z,4.17
2022-08-31T02:33:48.589Z,4.73
2022-08-31T02:36:20.825Z,4.00
2022-08-31T02:38:52.820Z,3.95
2022-08-31T02:41:25.212Z,4.15
2022-08-31T02:43:57.172Z,3.95
2022-08-31T02:46:29.355Z,3.70
2022-08-31T02:49:03.502Z,3.70
2022-08-31T02:51:35.454Z,4.05
2022-08-31T02:54:10.279Z,3.90
2022-08-31T02:56:42.867Z,3.70
2022-08-31T02:59:15.001Z,3.50
2022-08-31T03:01:50.079Z,3.85
2022-08-31T03:04:22.193Z,4.15
2022-08-31T03:06:54.261Z,3.80
2022-08-31T03:09:26.203Z,4.10
2022-08-31T03:11:58.201Z,3.50
2022-08-31T03:14:30.319Z,3.62
2022-08-31T03:17:02.786Z,3.80
2022-08-31T03:19:34.892Z,4.20
2022-08-31T03:22:07.986Z,3.70
2022-08-31T03:24:40.236Z,3.95
2022-08-31T03:27:12.354Z,2.98
2022-08-31T03:29:44.694Z,3.45
2022-08-31T03:32:18.902Z,3.50
2022-08-31T03:34:57.897Z,3.30
2022-08-31T03:37:30.241Z,3.25
2022-08-31T03:40:05.343Z,3.45
2022-08-31T03:42:38.315Z,3.37
2022-08-31T03:45:12.266Z,3.45
2022-08-31T03:47:45.733Z,6.53
2022-08-31T03:50:19.539Z,4.10
2022-08-31T03:52:59.200Z,3.77
2022-08-31T03:55:33.736Z,3.27
2022-08-31T04:00:39.819Z,3.10
2022-08-31T04:03:14.369Z,3.40
2022-08-31T04:06:07.463Z,3.30
2022-08-31T04:08:57.289Z,3.70
2022-08-31T04:11:46.941Z,3.95
2022-08-31T04:14:23.457Z,3.85
2022-08-31T04:17:06.102Z,3.58
2022-08-31T04:19:41.628Z,2.62
2022-08-31T04:22:21.472Z,3.05
2022-08-31T04:24:55.542Z,3.47
2022-08-31T04:27:27.772Z,3.80
2022-08-31T04:30:00.049Z,3.80
2022-08-31T04:32:34.802Z,3.65
2022-08-31T04:35:08.725Z,3.17
2022-08-31T04:37:46.395Z,3.80
2022-08-31T04:42:50.598Z,3.25
2022-08-31T04:45:24.932Z,3.08
2022-08-31T04:47:57.292Z,3.15
2022-08-31T04:50:29.490Z,3.10
2022-08-31T04:53:12.980Z,3.35
2022-08-31T04:55:45.770Z,2.92
2022-08-31T04:58:19.684Z,2.87
2022-08-31T05:00:53.716Z,3.45
2022-08-31T05:03:40.725Z,3.10
2022-08-31T05:06:19.315Z,2.85
2022-08-31T05:08:58.604Z,3.40
2022-08-31T05:11:31.465Z,3.87
2022-08-31T05:14:07.005Z,2.90
2022-08-31T05:16:42.658Z,3.25
2022-08-31T05:19:15.147Z,3.87
2022-08-31T05:21:47.641Z,3.02
2022-08-31T05:24:23.790Z,3.30
2022-08-31T05:26:57.793Z,3.08
2022-08-31T05:29:30.961Z,2.55
2022-08-31T05:32:04.996Z,2.62
2022-08-31T05:34:37.328Z,3.27
2022-08-31T05:37:09.595Z,3.05
2022-08-31T05:39:41.874Z,3.20
2022-08-31T05:42:16.952Z,3.58
2022-08-31T05:44:52.189Z,3.17
2022-08-31T05:47:24.630Z,3.20
2022-08-31T05:49:57.373Z,3.25
2022-08-31T05:52:29.932Z,3.00
2022-08-31T05:55:02.316Z,2.85
2022-08-31T05:57:34.310Z,3.00
2022-08-31T06:00:07.491Z,3.15
2022-08-31T06:02:42.407Z,3.37
2022-08-31T06:05:16.594Z,3.17
2022-08-31T06:07:51.004Z,2.62
2022-08-31T06:10:25.456Z,2.47
2022-08-31T06:12:57.721Z,2.80
2022-08-31T06:15:30.091Z,3.25
2022-08-31T06:18:02.746Z,2.80
2022-08-31T06:20:37.624Z,2.33
2022-08-31T06:23:10.673Z,2.40
2022-08-31T06:25:44.475Z,2.75
2022-08-31T06:28:16.716Z,2.05
2022-08-31T06:30:55.264Z,2.30
2022-08-31T06:33:24.861Z,2.20
2022-08-31T06:36:16.485Z,1.80
2022-08-31T06:38:59.538Z,2.22
2022-08-31T06:41:37.060Z,2.22
2022-08-31T06:44:16.729Z,1.47
2022-08-31T06:46:59.937Z,1.55
2022-08-31T06:49:33.720Z,1.67
2022-08-31T06:52:06.515Z,1.70
2022-08-31T06:54:40.415Z,1.80
2022-08-31T06:57:30.610Z,2.10
2022-08-31T07:00:21.607Z,2.50
2022-08-31T07:03:26.973Z,3.05
2022-08-31T07:05:59.064Z,2.83
2022-08-31T07:08:31.937Z,1.80
2022-08-31T07:11:05.154Z,2.10
2022-08-31T07:13:38.017Z,1.92
2022-08-31T07:16:13.382Z,1.62
2022-08-31T07:18:47.189Z,1.75
2022-08-31T07:21:22.633Z,2.35
2022-08-31T07:23:56.950Z,1.87
2022-08-31T07:26:36.301Z,1.72
2022-08-31T07:29:10.057Z,2.80
2022-08-31T07:31:49.121Z,2.65
2022-08-31T07:34:26.980Z,2.12
2022-08-31T07:37:30.939Z,1.80
2022-08-31T07:40:20.931Z,2.50
2022-08-31T07:42:54.832Z,2.45
2022-08-31T07:45:30.213Z,1.90
2022-08-31T07:48:02.309Z,2.05
2022-08-31T07:50:37.441Z,1.57
2022-08-31T07:53:22.495Z,2.30
2022-08-31T07:56:00.449Z,2.65
2022-08-31T07:58:42.186Z,1.92
2022-08-31T08:01:16.281Z,1.98
2022-08-31T08:03:50.900Z,2.50
2022-08-31T08:06:40.704Z,2.52
2022-08-31T08:09:24.436Z,2.05
2022-08-31T08:12:01.003Z,2.00
2022-08-31T08:14:38.373Z,1.80
2022-08-31T08:17:12.696Z,1.87
2022-08-31T08:19:46.612Z,2.40
2022-08-31T08:22:30.801Z,1.77
2022-08-31T08:24:58.928Z,1.72
2022-08-31T08:27:33.117Z,1.87
2022-08-31T08:30:21.839Z,1.80
2022-08-31T08:32:54.600Z,1.55
2022-08-31T08:35:28.155Z,1.92
2022-08-31T08:38:04.490Z,1.60
2022-08-31T08:40:41.952Z,1.67
2022-08-31T08:43:18.471Z,1.47
2022-08-31T08:45:54.256Z,2.35
2022-08-31T08:48:31.041Z,1.55
2022-08-31T08:51:05.190Z,1.85
2022-08-31T08:53:42.206Z,1.50
2022-08-31T08:56:32.409Z,1.72
2022-08-31T08:58:49.584Z,2.13
2022-08-31T09:01:27.373Z,1.98
2022-08-31T09:04:20.834Z,1.50
2022-08-31T09:07:17.952Z,1.70
2022-08-31T09:10:05.108Z,1.67
2022-08-31T09:12:49.233Z,1.27
2022-08-31T09:15:46.223Z,2.20
2022-08-31T09:18:47.447Z,2.22
2022-08-31T09:21:32.885Z,1.25
2022-08-31T09:24:17.138Z,2.10
2022-08-31T09:27:07.525Z,1.60
2022-08-31T09:29:43.628Z,1.70
2022-08-31T09:32:20.494Z,2.12
2022-08-31T09:35:02.558Z,2.10
2022-08-31T09:37:49.476Z,1.30
2022-08-31T09:40:27.212Z,1.77
2022-08-31T09:43:13.784Z,2.00
2022-08-31T09:45:51.424Z,1.17
2022-08-31T09:48:45.932Z,1.25
2022-08-31T09:51:33.891Z,1.25
2022-08-31T09:54:41.020Z,2.70
2022-08-31T09:57:12.801Z,1.00
2022-08-31T09:59:52.000Z,0.80
2022-08-31T10:02:31.565Z,1.20
2022-08-31T10:05:07.355Z,0.60
2022-08-31T10:07:51.493Z,1.65
2022-08-31T10:10:31.766Z,1.10
2022-08-31T10:13:22.140Z,1.30
2022-08-31T10:16:11.217Z,1.30
2022-08-31T10:18:52.372Z,1.30
2022-08-31T10:21:50.190Z,1.55
2022-08-31T10:24:32.682Z,1.40
2022-08-31T10:27:23.573Z,1.52
2022-08-31T10:30:01.326Z,1.20
2022-08-31T10:32:48.788Z,0.90
2022-08-31T10:35:24.164Z,1.20
2022-08-31T10:38:20.081Z,1.30
2022-08-31T10:40:54.835Z,0.90
2022-08-31T10:43:46.275Z,1.30
2022-08-31T10:46:19.239Z,1.80
2022-08-31T10:48:54.639Z,0.88
2022-08-31T10:51:35.680Z,1.20
2022-08-31T10:54:39.328Z,1.20
2022-08-31T10:57:31.420Z,2.62
2022-08-31T11:00:04.990Z,1.77
2022-08-31T11:02:55.666Z,1.80
2022-08-31T11:05:33.628Z,1.05
2022-08-31T11:08:24.198Z,1.05
2022-08-31T11:10:59.589Z,1.05
2022-08-31T11:13:54.070Z,1.80
2022-08-31T11:16:44.039Z,0.90
2022-08-31T11:19:29.096Z,1.32
2022-08-31T11:22:07.843Z,0.80
2022-08-31T11:24:51.919Z,1.60
2022-08-31T11:27:27.426Z,1.20
2022-08-31T11:30:08.991Z,0.90
2022-08-31T11:32:47.356Z,2.33
2022-08-31T11:35:39.197Z,1.40
2022-08-31T11:38:54.790Z,1.20
2022-08-31T11:41:43.284Z,0.95
2022-08-31T11:44:34.218Z,1.30
2022-08-31T11:47:15.657Z,1.87
2022-08-31T11:49:50.523Z,0.88
2022-08-31T11:52:32.890Z,0.93
2022-08-31T11:55:22.893Z,1.37
2022-08-31T11:58:07.801Z,0.75
2022-08-31T12:00:52.095Z,0.90
2022-08-31T12:03:39.156Z,0.60
2022-08-31T12:06:14.500Z,1.27
2022-08-31T12:08:56.254Z,0.80
2022-08-31T12:11:40.964Z,0.60
2022-08-31T12:17:03.284Z,0.75
2022-08-31T12:20:02.871Z,0.62
2022-08-31T12:23:30.680Z,0.60
2022-08-31T12:26:31.215Z,0.68
2022-08-31T12:29:25.418Z,0.70
2022-08-31T12:32:12.379Z,0.65
2022-08-31T12:35:19.348Z,0.62
2022-08-31T12:38:05.363Z,0.50
2022-08-31T12:40:55.411Z,0.60
2022-08-31T12:43:39.567Z,0.60
2022-08-31T12:46:41.985Z,0.65
2022-08-31T12:49:45.784Z,0.68
2022-08-31T12:52:44.732Z,1.20
2022-08-31T12:55:31.935Z,0.53
2022-08-31T12:58:25.222Z,0.70
2022-08-31T13:01:09.346Z,0.40
2022-08-31T13:03:44.795Z,0.70
2022-08-31T13:06:19.799Z,1.00
2022-08-31T13:08:56.201Z,0.80
2022-08-31T13:11:40.716Z,1.40
2022-08-31T13:14:20.991Z,0.80
2022-08-31T13:17:08.460Z,0.60
2022-08-31T13:19:43.148Z,0.70
2022-08-31T13:22:17.315Z,1.02
2022-08-31T13:24:51.527Z,0.50
2022-08-31T13:27:28.738Z,0.40
2022-08-31T13:30:04.386Z,0.60
2022-08-31T13:32:39.823Z,1.20
2022-08-31T13:35:15.543Z,1.10
2022-08-31T13:37:52.311Z,0.53
2022-08-31T13:40:26.963Z,1.20
2022-08-31T13:43:00.424Z,2.12
2022-08-31T13:45:35.503Z,1.05
2022-08-31T13:48:17.126Z,1.45
2022-08-31T13:50:54.299Z,0.47
2022-08-31T13:53:46.264Z,0.50
2022-08-31T13:56:42.578Z,0.47
2022-08-31T13:59:24.192Z,0.70
2022-08-31T14:02:08.325Z,1.37
2022-08-31T14:04:49.217Z,0.40
2022-08-31T14:07:24.698Z,0.45
2022-08-31T14:10:26.452Z,0.60
2022-08-31T14:13:14.470Z,0.70
2022-08-31T14:15:53.503Z,0.62
2022-08-31T14:18:39.259Z,0.60
2022-08-31T14:21:21.954Z,0.70
2022-08-31T14:24:03.181Z,1.10
2022-08-31T14:26:38.509Z,0.95
2022-08-31T14:29:13.949Z,1.60
2022-08-31T14:31:53.660Z,0.55
2022-08-31T14:34:34.060Z,0.65
2022-08-31T14:37:10.919Z,0.50
2022-08-31T14:39:49.720Z,0.50
2022-08-31T14:42:35.019Z,0.70
2022-08-31T14:45:10.321Z,1.00
2022-08-31T14:47:46.240Z,2.98
2022-08-31T14:50:22.718Z,1.20
2022-08-31T14:52:58.553Z,0.70
2022-08-31T14:55:30.870Z,0.90
2022-08-31T14:58:07.947Z,0.90
2022-08-31T15:00:51.100Z,0.70
2022-08-31T15:03:22.091Z,0.50
2022-08-31T15:05:54.712Z,0.82
2022-08-31T15:08:38.110Z,0.40
2022-08-31T15:11:04.153Z,0.82
2022-08-31T15:13:38.041Z,0.40
2022-08-31T15:16:13.712Z,0.60
2022-08-31T15:18:46.605Z,0.70
2022-08-31T15:21:18.696Z,0.50
2022-08-31T15:23:54.201Z,0.65
2022-08-31T15:26:26.442Z,0.80
2022-08-31T15:28:59.713Z,1.05
2022-08-31T15:31:32.034Z,0.57
2022-08-31T15:34:09.931Z,1.05
2022-08-31T15:36:39.488Z,0.80
2022-08-31T15:39:11.662Z,0.60
2022-08-31T15:41:46.012Z,0.55
2022-08-31T15:44:19.759Z,1.15
2022-08-31T15:47:09.463Z,0.88
2022-08-31T15:49:43.376Z,0.50
2022-08-31T15:52:16.342Z,0.70
2022-08-31T15:54:50.767Z,0.30
2022-08-31T15:57:23.287Z,0.08
2022-08-31T15:59:55.886Z,0.70
2022-08-31T16:02:30.175Z,0.82
2022-08-31T16:05:02.893Z,1.02
2022-08-31T16:07:55.842Z,0.70
2022-08-31T16:10:28.510Z,0.70
2022-08-31T16:13:02.506Z,0.37
2022-08-31T16:15:34.820Z,0.57
2022-08-31T16:18:07.520Z,0.72
2022-08-31T16:20:39.783Z,0.70
2022-08-31T16:23:14.227Z,0.60
2022-08-31T16:25:49.314Z,0.80
2022-08-31T16:28:22.131Z,0.95
2022-08-31T16:30:54.816Z,1.32
2022-08-31T16:33:26.791Z,0.60
2022-08-31T16:35:59.030Z,0.40
2022-08-31T16:38:31.500Z,0.55
2022-08-31T16:41:06.555Z,0.60
2022-08-31T16:43:40.353Z,0.50
2022-08-31T16:46:37.297Z,0.47
2022-08-31T16:49:05.850Z,0.35
2022-08-31T16:51:39.020Z,0.78
2022-08-31T16:54:13.688Z,0.95
2022-08-31T16:56:52.054Z,0.40
2022-08-31T16:59:21.225Z,0.85
2022-08-31T17:01:56.306Z,0.55
2022-08-31T17:04:51.075Z,0.95
2022-08-31T17:07:02.781Z,0.90
2022-08-31T17:09:35.044Z,0.70
2022-08-31T17:12:11.881Z,0.53
2022-08-31T17:14:48.534Z,0.60
2022-08-31T17:17:26.558Z,0.72
2022-08-31T17:20:00.821Z,1.55
2022-08-31T17:22:33.994Z,1.35
2022-08-31T17:25:08.282Z,0.50
2022-08-31T17:30:12.880Z,0.70
2022-08-31T17:32:47.719Z,0.82
2022-08-31T17:35:20.426Z,0.60
2022-08-31T17:37:52.860Z,0.50
2022-08-31T17:40:25.906Z,1.00
2022-08-31T17:43:00.045Z,0.60
2022-08-31T17:45:32.791Z,0.70
2022-08-31T17:48:05.226Z,0.98
2022-08-31T17:50:39.359Z,0.60
2022-08-31T17:53:12.160Z,0.60
2022-08-31T17:55:44.431Z,0.57
2022-08-31T17:58:16.852Z,0.88
2022-08-31T18:00:49.801Z,0.65
2022-08-31T18:03:22.689Z,1.27
2022-08-31T18:05:55.342Z,0.60
2022-08-31T18:08:27.374Z,0.70
2022-08-31T18:10:59.732Z,0.70
2022-08-31T18:13:32.006Z,0.50
2022-08-31T18:16:05.923Z,0.60
2022-08-31T18:18:38.476Z,0.93
2022-08-31T18:21:10.769Z,0.85
2022-08-31T18:23:43.088Z,0.72
2022-08-31T18:26:23.973Z,0.68
2022-08-31T18:28:57.435Z,0.45
2022-08-31T18:31:31.415Z,0.90
2022-08-31T18:34:06.619Z,0.70
2022-08-31T18:36:40.384Z,0.70
2022-08-31T18:39:25.972Z,0.60
2022-08-31T18:42:09.801Z,0.53
2022-08-31T18:44:59.384Z,0.50
2022-08-31T18:47:33.187Z,0.50
2022-08-31T18:50:06.144Z,0.40
2022-08-31T18:52:40.421Z,0.40
2022-08-31T18:55:15.517Z,0.40
2022-08-31T18:57:48.800Z,0.80
2022-08-31T19:00:21.787Z,0.90
2022-08-31T19:02:54.223Z,0.50
2022-08-31T19:05:26.770Z,0.60
2022-08-31T19:08:00.697Z,0.90
2022-08-31T19:10:34.459Z,0.60
2022-08-31T19:13:07.850Z,0.20
2022-08-31T19:15:41.183Z,0.40
2022-08-31T19:18:13.258Z,0.33
2022-08-31T19:20:46.117Z,0.40
2022-08-31T19:23:20.215Z,0.53
2022-08-31T19:25:52.207Z,0.40
2022-08-31T19:28:27.600Z,0.30
2022-08-31T19:31:00.183Z,0.50
2022-08-31T19:33:34.141Z,0.60
2022-08-31T19:36:06.987Z,0.45
2022-08-31T19:38:40.243Z,0.93
2022-08-31T19:41:24.294Z,0.88
2022-08-31T19:44:07.594Z,0.95
2022-08-31T19:46:33.015Z,0.65
2022-08-31T19:49:06.766Z,0.57
2022-08-31T19:51:41.225Z,0.30
2022-08-31T19:56:44.841Z,0.33
2022-08-31T19:59:20.116Z,0.40
2022-08-31T20:01:54.519Z,0.53
2022-08-31T20:04:29.980Z,0.70
2022-08-31T20:07:04.147Z,0.30
2022-08-31T20:09:36.542Z,0.40
2022-08-31T20:12:09.177Z,0.40
2022-08-31T20:14:41.233Z,0.85
2022-08-31T20:17:14.830Z,0.72
2022-08-31T20:19:49.607Z,0.40
2022-08-31T20:22:23.235Z,0.95
2022-08-31T20:24:57.968Z,0.33
2022-08-31T20:27:31.053Z,0.42
2022-08-31T20:30:03.191Z,0.80
2022-08-31T20:32:38.161Z,0.50
2022-08-31T20:35:10.585Z,0.53
2022-08-31T20:37:42.584Z,0.28
2022-08-31T20:40:16.274Z,0.40
2022-08-31T20:42:50.126Z,0.45
2022-08-31T20:45:23.054Z,0.73
2022-08-31T20:48:12.523Z,0.90
2022-08-31T20:50:48.715Z,0.17
2022-08-31T20:53:38.990Z,0.80
2022-08-31T20:55:53.472Z,0.20
2022-08-31T20:58:25.557Z,0.30
2022-08-31T21:00:57.797Z,0.10
2022-08-31T21:03:29.729Z,0.70
2022-08-31T21:06:11.699Z,0.65
2022-08-31T21:08:43.840Z,0.60
2022-08-31T21:11:18.187Z,0.80
2022-08-31T21:13:50.793Z,0.70
2022-08-31T21:16:24.819Z,0.40
2022-08-31T21:18:57.464Z,0.50
2022-08-31T21:21:32.497Z,0.70
2022-08-31T21:24:06.212Z,0.62
2022-08-31T21:26:40.694Z,0.30
2022-08-31T21:29:15.872Z,0.30
2022-08-31T21:31:54.661Z,0.53
2022-08-31T21:34:22.699Z,0.30
2022-08-31T21:36:55.714Z,0.70
2022-08-31T21:39:27.716Z,0.60
2022-08-31T21:42:00.022Z,0.70
2022-08-31T21:44:32.333Z,0.30
2022-08-31T21:47:05.189Z,0.82
2022-08-31T21:49:39.800Z,0.40
2022-08-31T21:52:13.127Z,0.33
2022-08-31T21:54:46.456Z,0.47
2022-08-31T21:57:18.708Z,0.40
2022-08-31T21:59:51.099Z,0.37
2022-08-31T22:02:23.481Z,0.40
2022-08-31T22:04:55.545Z,0.60
2022-08-31T22:07:27.521Z,0.42
2022-08-31T22:09:59.875Z,0.75
2022-08-31T22:12:33.355Z,0.53
2022-08-31T22:15:08.059Z,1.55
2022-08-31T22:20:15.894Z,0.50
2022-08-31T22:22:48.069Z,0.50
2022-08-31T22:25:20.427Z,0.30
2022-08-31T22:27:52.812Z,0.30
2022-08-31T22:30:26.594Z,0.47
2022-08-31T22:32:58.673Z,0.72
2022-08-31T22:35:30.657Z,0.20
2022-08-31T22:38:02.802Z,0.60
2022-08-31T22:40:36.474Z,0.25
2022-08-31T22:43:09.539Z,0.57
2022-08-31T22:45:48.215Z,0.47
2022-08-31T22:48:18.569Z,0.20
2022-08-31T22:50:50.619Z,0.40
2022-08-31T22:53:22.983Z,0.85
2022-08-31T22:55:55.246Z,0.37
2022-08-31T22:58:27.335Z,0.40
2022-08-31T23:00:59.559Z,0.30
2022-08-31T23:03:31.839Z,0.28
2022-08-31T23:06:03.904Z,0.28
2022-08-31T23:08:36.034Z,0.30
2022-08-31T23:11:08.872Z,0.20
2022-08-31T23:13:52.808Z,0.10
2022-08-31T23:16:27.948Z,0.40
2022-08-31T23:19:03.151Z,0.37
2022-08-31T23:21:35.598Z,0.40
2022-08-31T23:24:08.024Z,0.20
2022-08-31T23:26:40.813Z,0.60
2022-08-31T23:29:14.237Z,0.20
2022-08-31T23:31:48.731Z,0.40
2022-08-31T23:34:22.193Z,0.42
2022-08-31T23:36:55.787Z,0.30
2022-08-31T23:39:27.797Z,0.42
2022-08-31T23:42:00.339Z,0.40
2022-08-31T23:44:33.516Z,0.50
2022-08-31T23:47:06.023Z,0.47
2022-08-31T23:49:38.708Z,0.30
2022-08-31T23:52:12.197Z,0.80
2022-08-31T23:54:44.165Z,0.50
2022-08-31T23:57:32.264Z,0.47
2022-08-31T23:59:56.018Z,0.60
